Time;durP1;ratioP1;P1;durP2;ratioP2;P2;SDS_P1;SDS_P2;PMS_P1;PMS_P2;Temp;Humidity;BMP_temperature;BMP_pressure;BME280_temperature;BME280_humidity;BME280_pressure;Samples;Min_cycle;Max_cycle;Signal;HPM_P1;HPM_P2
2024/03/22 00:00:05;;;;;;;14.17;13.07;;;10.20;99.90;;;;;;4799681;29;20217;-37
2024/03/22 00:02:30;;;;;;;13.23;12.30;;;10.30;99.90;;;;;;4797649;29;20201;-37
2024/03/22 00:04:56;;;;;;;13.30;12.30;;;10.20;99.90;;;;;;4798760;29;20456;-37
2024/03/22 00:07:21;;;;;;;13.80;12.70;;;10.30;99.90;;;;;;4804674;29;20537;-38
2024/03/22 00:09:47;;;;;;;14.67;13.57;;;10.30;99.90;;;;;;4799550;29;20209;-38
2024/03/22 00:12:13;;;;;;;15.30;14.10;;;10.30;99.90;;;;;;4801462;29;20217;-39
2024/03/22 00:14:38;;;;;;;15.20;14.00;;;10.30;99.90;;;;;;4790645;29;20264;-37
2024/03/22 00:17:04;;;;;;;15.40;14.30;;;10.30;99.90;;;;;;4801078;29;20195;-38
2024/03/22 00:19:31;;;;;;;14.63;13.43;;;10.30;1.00;;;;;;4799516;29;20237;-36
2024/03/22 00:21:56;;;;;;;14.83;13.63;;;10.20;1.00;;;;;;4799836;29;20512;-38
2024/03/22 00:24:22;;;;;;;14.17;13.07;;;10.20;1.00;;;;;;4801503;29;20202;-38
2024/03/22 00:26:47;;;;;;;14.73;13.63;;;10.20;1.00;;;;;;4798676;29;20199;-38
2024/03/22 00:29:13;;;;;;;14.77;13.67;;;10.20;1.00;;;;;;4807940;29;20197;-38
2024/03/22 00:31:39;;;;;;;16.40;15.00;;;10.30;1.00;;;;;;4804512;29;20218;-37
2024/03/22 00:34:04;;;;;;;16.10;14.50;;;10.30;1.00;;;;;;4803617;29;20290;-40
2024/03/22 00:36:30;;;;;;;16.20;14.80;;;10.30;1.00;;;;;;4787703;29;20569;-38
2024/03/22 00:38:56;;;;;;;16.00;14.63;;;10.20;1.00;;;;;;4807639;29;21249;-50
2024/03/22 00:41:22;;;;;;;16.87;15.33;;;10.20;1.00;;;;;;4806199;29;20328;-45
2024/03/22 00:43:48;;;;;;;17.30;15.70;;;10.20;1.00;;;;;;4807904;29;20523;-48
2024/03/22 00:46:13;;;;;;;16.50;15.10;;;10.10;1.00;;;;;;4805103;29;20214;-51
2024/03/22 00:48:39;;;;;;;17.77;16.13;;;10.20;1.00;;;;;;4814261;29;20253;-51
2024/03/22 00:51:04;;;;;;;16.53;15.13;;;10.10;1.00;;;;;;4805641;29;20198;-45
2024/03/22 00:53:30;;;;;;;16.80;15.20;;;10.10;1.00;;;;;;4811765;29;20608;-49
2024/03/22 00:55:58;;;;;;;17.90;16.23;;;10.00;99.90;;;;;;4805793;29;20247;-47
2024/03/22 00:58:25;;;;;;;17.30;15.73;;;10.00;99.90;;;;;;4810001;29;20943;-53
2024/03/22 01:00:51;;;;;;;17.97;16.37;;;9.90;99.90;;;;;;4802965;29;21048;-50
2024/03/22 01:03:16;;;;;;;16.23;14.80;;;9.90;99.90;;;;;;4802284;29;20549;-53
2024/03/22 01:05:42;;;;;;;16.30;14.63;;;9.90;99.90;;;;;;4806594;29;20197;-52
2024/03/22 01:08:08;;;;;;;17.50;15.90;;;10.00;99.90;;;;;;4799446;29;20247;-51
2024/03/22 01:10:34;;;;;;;17.33;15.80;;;10.00;99.90;;;;;;4798582;29;21584;-47
2024/03/22 01:13:00;;;;;;;15.83;14.53;;;10.00;99.90;;;;;;4786315;29;20218;-48
2024/03/22 01:15:26;;;;;;;16.67;15.10;;;10.00;99.90;;;;;;4798857;29;20506;-45
2024/03/22 01:17:52;;;;;;;15.90;14.50;;;10.00;99.90;;;;;;4799984;29;20456;-50
2024/03/22 01:20:18;;;;;;;17.03;15.53;;;10.00;99.90;;;;;;4800738;29;20604;-49
2024/03/22 01:22:43;;;;;;;18.73;16.83;;;10.00;58.40;;;;;;4796701;29;20455;-46
2024/03/22 01:25:12;;;;;;;17.40;15.80;;;10.00;93.30;;;;;;4809154;29;20645;-53
2024/03/22 01:27:38;;;;;;;16.30;14.77;;;10.00;12.80;;;;;;4800650;29;20700;-51
2024/03/22 01:30:04;;;;;;;15.63;14.20;;;10.00;48.80;;;;;;4808948;29;20554;-52
2024/03/22 01:32:30;;;;;;;16.40;14.80;;;9.90;69.60;;;;;;4801581;29;20290;-38
2024/03/22 01:34:57;;;;;;;16.73;15.17;;;9.90;94.60;;;;;;4801449;29;20455;-38
2024/03/22 01:37:22;;;;;;;17.17;15.47;;;9.90;99.90;;;;;;4799040;29;20487;-39
2024/03/22 01:39:48;;;;;;;17.07;15.57;;;9.80;99.90;;;;;;4806493;29;20562;-39
2024/03/22 01:42:13;;;;;;;16.63;15.03;;;9.80;99.90;;;;;;4806556;29;20229;-42
2024/03/22 01:44:39;;;;;;;17.67;15.83;;;9.80;99.90;;;;;;4807299;29;20280;-41
2024/03/22 01:47:04;;;;;;;16.57;14.93;;;9.80;99.90;;;;;;4798587;29;20203;-38
2024/03/22 01:49:30;;;;;;;16.70;15.17;;;9.70;99.90;;;;;;4799478;29;20229;-38
2024/03/22 01:51:56;;;;;;;17.53;15.90;;;9.70;99.90;;;;;;4799174;29;20745;-38
2024/03/22 01:54:22;;;;;;;16.83;15.40;;;9.70;99.90;;;;;;4800881;29;20500;-38
2024/03/22 01:56:48;;;;;;;17.23;15.63;;;9.70;99.90;;;;;;4798701;29;20267;-38
2024/03/22 01:59:14;;;;;;;16.13;14.70;;;9.60;99.90;;;;;;4805623;29;20356;-38
2024/03/22 02:01:40;;;;;;;16.60;15.10;;;9.60;99.90;;;;;;4806583;29;20469;-38
2024/03/22 02:04:06;;;;;;;15.97;14.57;;;9.60;1.00;;;;;;4803352;29;20454;-39
2024/03/22 02:06:32;;;;;;;16.90;15.40;;;9.60;1.00;;;;;;4811513;29;20435;-38
2024/03/22 02:08:58;;;;;;;18.60;16.87;;;9.60;99.90;;;;;;4804423;29;20208;-46
2024/03/22 02:11:25;;;;;;;18.37;16.50;;;9.60;99.90;;;;;;4809877;29;21070;-48
2024/03/22 02:13:51;;;;;;;17.03;15.50;;;9.60;99.90;;;;;;4803550;29;20484;-46
2024/03/22 02:16:16;;;;;;;17.20;15.70;;;9.50;99.90;;;;;;4803675;29;20499;-52
2024/03/22 02:18:42;;;;;;;17.97;16.17;;;9.50;99.90;;;;;;4799743;29;20190;-48
2024/03/22 02:21:08;;;;;;;17.00;15.40;;;9.50;99.90;;;;;;4798295;29;20190;-52
2024/03/22 02:23:34;;;;;;;18.00;16.30;;;9.40;99.90;;;;;;4806069;29;20191;-52
2024/03/22 02:26:01;;;;;;;17.17;15.57;;;9.50;1.00;;;;;;4801799;29;20232;-50
2024/03/22 02:28:27;;;;;;;18.20;16.50;;;9.40;1.00;;;;;;4804312;29;20509;-51
2024/03/22 02:30:53;;;;;;;16.63;15.10;;;9.40;1.00;;;;;;4806338;29;21451;-45
2024/03/22 02:33:18;;;;;;;17.77;16.07;;;9.40;1.00;;;;;;4805192;29;20221;-48
2024/03/22 02:35:46;;;;;;;17.70;16.00;;;9.40;1.00;;;;;;4812486;29;20434;-49
2024/03/22 02:38:12;;;;;;;17.60;16.00;;;9.40;1.00;;;;;;4807231;29;20259;-52
2024/03/22 02:40:38;;;;;;;18.63;16.70;;;9.30;1.00;;;;;;4795183;29;20891;-46
2024/03/22 02:43:03;;;;;;;17.30;15.60;;;9.30;1.00;;;;;;4800266;29;20693;-51
2024/03/22 02:45:30;;;;;;;16.27;14.87;;;9.40;1.00;;;;;;4808990;29;20190;-49
2024/03/22 02:47:56;;;;;;;17.37;15.90;;;9.40;1.00;;;;;;4797123;29;20194;-45
2024/03/22 02:50:22;;;;;;;17.43;15.83;;;9.30;1.00;;;;;;4798831;29;20439;-39
2024/03/22 02:52:51;;;;;;;17.13;15.57;;;9.30;1.00;;;;;;4794742;29;20213;-38
2024/03/22 02:55:16;;;;;;;17.33;15.63;;;9.30;1.00;;;;;;4794251;29;20194;-38
2024/03/22 02:57:42;;;;;;;18.50;14.40;;;9.30;1.00;;;;;;4799005;29;20843;-38
2024/03/22 03:00:08;;;;;;;17.53;16.00;;;9.20;8.20;;;;;;4778414;29;20198;-38
2024/03/22 03:02:35;;;;;;;17.83;16.13;;;9.20;19.80;;;;;;4796095;29;20444;-45
2024/03/22 03:05:01;;;;;;;17.43;15.83;;;9.20;19.70;;;;;;4796486;29;20653;-39
2024/03/22 03:07:30;;;;;;;17.60;15.90;;;9.20;1.00;;;;;;4795030;29;20452;-38
2024/03/22 03:09:55;;;;;;;17.03;15.43;;;9.20;1.00;;;;;;4783509;29;20436;-38
2024/03/22 03:12:21;;;;;;;17.70;16.00;;;9.20;1.10;;;;;;4802633;29;20475;-38
2024/03/22 03:14:46;;;;;;;17.37;15.63;;;9.10;96.10;;;;;;4795951;29;21279;-37
2024/03/22 03:17:12;;;;;;;16.93;15.43;;;9.20;1.00;;;;;;4798588;29;20194;-37
2024/03/22 03:19:38;;;;;;;17.73;16.10;;;9.10;1.00;;;;;;4793812;29;20264;-37
2024/03/22 03:22:03;;;;;;;18.37;16.63;;;9.10;1.00;;;;;;4794670;29;20206;-38
2024/03/22 03:24:29;;;;;;;17.23;15.70;;;9.10;1.00;;;;;;4793990;29;20190;-40
2024/03/22 03:26:55;;;;;;;17.70;15.73;;;9.10;1.00;;;;;;4800594;29;21291;-38
2024/03/22 03:29:20;;;;;;;19.87;17.10;;;9.10;1.00;;;;;;4800849;29;20205;-37
2024/03/22 03:31:46;;;;;;;18.70;16.50;;;9.10;99.90;;;;;;4797310;29;20309;-37
2024/03/22 03:34:12;;;;;;;17.53;15.70;;;9.10;99.90;;;;;;4802507;29;20287;-37
2024/03/22 03:36:37;;;;;;;18.33;16.60;;;9.10;99.90;;;;;;4797676;29;20205;-39
2024/03/22 03:39:04;;;;;;;17.43;15.87;;;9.10;99.90;;;;;;4795359;29;20182;-37
2024/03/22 03:41:29;;;;;;;18.70;16.77;;;9.00;1.00;;;;;;4797996;29;20190;-37
2024/03/22 03:43:55;;;;;;;18.33;16.43;;;9.00;1.00;;;;;;4803644;29;20539;-38
2024/03/22 03:46:20;;;;;;;17.80;16.10;;;9.00;1.00;;;;;;4802969;29;20182;-37
2024/03/22 03:48:46;;;;;;;17.53;15.83;;;9.10;1.00;;;;;;4794260;29;20973;-36
2024/03/22 03:51:12;;;;;;;17.90;16.00;;;9.00;99.90;;;;;;4793799;29;20187;-37
2024/03/22 03:53:37;;;;;;;18.30;16.43;;;9.00;99.90;;;;;;4793464;29;20218;-37
2024/03/22 03:56:03;;;;;;;17.07;15.47;;;9.00;99.90;;;;;;4805225;29;20319;-37
2024/03/22 03:58:29;;;;;;;17.40;15.67;;;9.00;1.00;;;;;;4809624;29;20189;-41
2024/03/22 04:00:54;;;;;;;17.53;15.60;;;9.00;99.90;;;;;;4800342;29;20199;-38
2024/03/22 04:03:20;;;;;;;17.50;15.70;;;8.90;99.90;;;;;;4796076;29;20199;-37
2024/03/22 04:05:45;;;;;;;19.40;16.30;;;8.90;1.00;;;;;;4798731;29;20251;-37
2024/03/22 04:08:11;;;;;;;17.47;15.80;;;8.90;1.00;;;;;;4794029;29;20198;-39
2024/03/22 04:10:37;;;;;;;17.67;15.97;;;8.80;1.00;;;;;;4794484;29;20190;-37
2024/03/22 04:13:03;;;;;;;17.67;15.97;;;8.80;99.90;;;;;;4800198;29;20230;-39
2024/03/22 04:15:28;;;;;;;17.33;15.63;;;8.80;1.00;;;;;;4804515;29;20253;-37
2024/03/22 04:17:56;;;;;;;17.30;15.60;;;8.80;1.00;;;;;;4802530;29;20296;-38
2024/03/22 04:20:22;;;;;;;17.23;15.63;;;8.80;18.30;;;;;;4804583;29;20182;-37
2024/03/22 04:22:49;;;;;;;18.40;16.50;;;8.80;28.10;;;;;;4799168;29;20423;-39
2024/03/22 04:25:15;;;;;;;17.80;16.00;;;8.80;25.60;;;;;;4813658;29;20186;-38
2024/03/22 04:27:41;;;;;;;18.00;16.20;;;8.80;11.30;;;;;;4801105;29;20430;-38
2024/03/22 04:30:07;;;;;;;18.13;15.90;;;8.80;1.00;;;;;;4801479;29;20277;-37
2024/03/22 04:32:32;;;;;;;18.03;16.00;;;8.80;99.90;;;;;;4799919;29;20575;-39
2024/03/22 04:34:58;;;;;;;18.87;16.90;;;8.70;73.10;;;;;;4808561;29;20636;-37
2024/03/22 04:37:23;;;;;;;20.10;17.70;;;8.70;99.90;;;;;;4798068;29;20190;-37
2024/03/22 04:39:49;;;;;;;19.10;17.10;;;8.70;76.40;;;;;;4799400;29;20197;-41
2024/03/22 04:42:15;;;;;;;18.50;16.60;;;8.60;99.90;;;;;;4810263;29;20193;-39
2024/03/22 04:44:41;;;;;;;18.70;16.73;;;8.70;99.90;;;;;;4812477;29;20272;-49
2024/03/22 04:47:07;;;;;;;18.73;16.93;;;8.70;99.90;;;;;;4801791;29;20893;-47
2024/03/22 04:49:33;;;;;;;20.67;18.53;;;8.60;99.90;;;;;;4810574;29;20533;-49
2024/03/22 04:51:58;;;;;;;18.90;16.90;;;8.60;99.90;;;;;;4783649;29;20249;-52
2024/03/22 04:54:24;;;;;;;20.40;17.20;;;8.50;99.90;;;;;;4807243;29;20182;-50
2024/03/22 04:56:50;;;;;;;21.57;18.03;;;8.50;99.90;;;;;;4799560;29;20197;-50
2024/03/22 04:59:16;;;;;;;18.67;16.73;;;8.40;1.00;;;;;;4797495;29;20214;-47
2024/03/22 05:01:44;;;;;;;19.23;17.33;;;8.40;1.00;;;;;;4794833;29;21539;-47
2024/03/22 05:04:09;;;;;;;19.33;17.30;;;8.40;1.00;;;;;;4794574;29;20450;-50
2024/03/22 05:06:35;;;;;;;18.53;16.63;;;8.30;1.00;;;;;;4794307;29;20435;-52
2024/03/22 05:09:01;;;;;;;19.30;17.30;;;8.30;1.00;;;;;;4801342;29;20225;-37
2024/03/22 05:11:26;;;;;;;18.93;17.03;;;8.30;1.00;;;;;;4809143;29;20204;-38
2024/03/22 05:13:52;;;;;;;20.33;16.80;;;8.30;1.00;;;;;;4808126;29;20233;-45
2024/03/22 05:16:17;;;;;;;22.07;19.37;;;8.30;1.00;;;;;;4804144;29;20228;-42
2024/03/22 05:18:43;;;;;;;18.20;16.40;;;8.30;1.00;;;;;;4805235;29;20194;-38
2024/03/22 05:21:09;;;;;;;18.27;16.43;;;8.40;1.00;;;;;;4801104;29;20215;-38
2024/03/22 05:23:34;;;;;;;21.30;17.70;;;8.40;1.00;;;;;;4798356;29;20190;-38
2024/03/22 05:26:00;;;;;;;20.90;17.93;;;8.30;1.00;;;;;;4803615;29;20252;-45
2024/03/22 05:28:26;;;;;;;23.20;18.20;;;8.30;1.00;;;;;;4795622;29;20195;-48
2024/03/22 05:30:51;;;;;;;21.13;18.83;;;8.40;1.00;;;;;;4797322;29;20194;-51
2024/03/22 05:33:17;;;;;;;20.73;17.47;;;8.30;1.00;;;;;;4795904;29;20486;-47
2024/03/22 05:35:43;;;;;;;20.03;17.93;;;8.30;1.00;;;;;;4795914;29;20199;-52
2024/03/22 05:38:08;;;;;;;21.80;17.67;;;8.40;1.00;;;;;;4795702;29;20194;-51
2024/03/22 05:40:38;;;;;;;19.40;17.27;;;8.40;1.00;;;;;;4794595;29;20259;-37
2024/03/22 05:43:04;;;;;;;21.10;17.03;;;8.50;1.00;;;;;;4794186;29;20277;-38
2024/03/22 05:45:30;;;;;;;20.53;17.07;;;8.50;1.00;;;;;;4802266;29;20973;-39
2024/03/22 05:47:56;;;;;;;18.93;16.80;;;8.60;1.00;;;;;;4796875;29;20535;-39
2024/03/22 05:50:21;;;;;;;21.53;17.87;;;8.70;1.00;;;;;;4805640;29;20439;-38
2024/03/22 05:52:47;;;;;;;19.17;17.17;;;8.70;99.90;;;;;;4799703;29;20202;-38
2024/03/22 05:55:12;;;;;;;20.10;18.03;;;8.70;99.90;;;;;;4805522;29;20369;-38
2024/03/22 05:57:38;;;;;;;18.67;16.83;;;8.80;99.90;;;;;;4798597;29;20187;-38
2024/03/22 06:00:06;;;;;;;18.50;16.50;;;8.80;99.90;;;;;;4805023;29;20205;-37
2024/03/22 06:02:32;;;;;;;17.90;16.20;;;8.90;19.80;;;;;;4799291;29;20182;-38
2024/03/22 06:04:58;;;;;;;18.77;16.77;;;9.00;1.00;;;;;;4812265;29;20441;-42
2024/03/22 06:07:25;;;;;;;19.13;17.13;;;9.00;1.00;;;;;;4806426;29;20421;-39
2024/03/22 06:09:52;;;;;;;18.37;16.60;;;9.00;99.90;;;;;;4800629;29;20532;-41
2024/03/22 06:12:18;;;;;;;19.00;17.20;;;9.10;99.90;;;;;;4807147;29;20474;-41
2024/03/22 06:14:44;;;;;;;19.83;17.83;;;9.20;99.90;;;;;;4806181;29;20655;-38
2024/03/22 06:17:10;;;;;;;18.80;16.90;;;9.30;1.00;;;;;;4797220;29;20427;-39
2024/03/22 06:19:36;;;;;;;17.73;16.00;;;9.40;1.00;;;;;;4800189;29;20427;-39
2024/03/22 06:22:02;;;;;;;19.40;17.40;;;9.50;99.90;;;;;;4806335;29;21474;-41
2024/03/22 06:24:28;;;;;;;19.70;17.27;;;9.50;1.00;;;;;;4813354;29;20434;-39
2024/03/22 06:26:54;;;;;;;18.83;16.90;;;9.60;1.00;;;;;;4807980;29;21360;-41
2024/03/22 06:29:20;;;;;;;18.37;16.57;;;9.70;99.90;;;;;;4795643;29;20201;-40
2024/03/22 06:31:45;;;;;;;19.20;17.27;;;9.80;99.90;;;;;;4809473;29;20276;-38
2024/03/22 06:34:11;;;;;;;18.33;16.47;;;9.90;79.20;;;;;;4812660;29;20182;-38
2024/03/22 06:36:36;;;;;;;20.77;18.73;;;10.00;1.00;;;;;;4809853;29;20190;-38
2024/03/22 06:39:06;;;;;;;18.33;16.53;;;10.10;1.00;;;;;;4810761;29;20273;-38
2024/03/22 06:41:32;;;;;;;19.40;17.40;;;10.20;99.90;;;;;;4797425;29;20178;-42
2024/03/22 06:43:58;;;;;;;19.40;17.33;;;10.30;35.30;;;;;;4812038;29;20423;-39
2024/03/22 06:46:24;;;;;;;19.27;17.37;;;10.40;1.00;;;;;;4812892;29;20430;-41
2024/03/22 06:48:50;;;;;;;19.27;17.47;;;10.60;1.00;;;;;;4807072;29;20201;-38
2024/03/22 06:51:16;;;;;;;18.77;17.07;;;10.70;99.90;;;;;;4812963;29;20423;-39
2024/03/22 06:53:42;;;;;;;19.70;17.90;;;10.70;13.00;;;;;;4797751;29;20260;-39
2024/03/22 06:56:11;;;;;;;16.80;15.20;;;10.90;1.00;;;;;;4812241;29;20928;-46
2024/03/22 06:58:38;;;;;;;18.43;16.67;;;11.00;99.90;;;;;;4804399;29;20506;-42
2024/03/22 07:01:04;;;;;;;17.47;15.77;;;11.10;99.90;;;;;;4801447;29;20931;-38
2024/03/22 07:03:29;;;;;;;16.83;15.33;;;11.10;58.60;;;;;;4801892;29;20592;-41
2024/03/22 07:05:55;;;;;;;16.50;15.10;;;11.30;15.10;;;;;;4812594;29;20621;-38
2024/03/22 07:08:21;;;;;;;17.30;15.57;;;11.30;1.00;;;;;;4807746;29;20198;-40
2024/03/22 07:10:47;;;;;;;17.83;16.00;;;11.50;1.00;;;;;;4807027;29;20523;-38
2024/03/22 07:13:12;;;;;;;16.60;15.27;;;11.60;1.00;;;;;;4809187;29;20332;-40
2024/03/22 07:15:38;;;;;;;17.30;15.60;;;11.70;99.90;;;;;;4804471;29;20190;-39
2024/03/22 07:18:04;;;;;;;17.57;15.97;;;11.80;99.90;;;;;;4810558;29;20239;-39
2024/03/22 07:20:30;;;;;;;16.50;15.07;;;11.90;99.90;;;;;;4811715;29;20783;-42
2024/03/22 07:22:56;;;;;;;17.17;15.57;;;12.00;99.90;;;;;;4810595;29;20431;-41
2024/03/22 07:25:22;;;;;;;16.73;15.40;;;12.00;99.90;;;;;;4804845;29;20445;-42
2024/03/22 07:27:49;;;;;;;16.30;14.90;;;12.20;99.90;;;;;;4805524;29;20478;-47
2024/03/22 07:30:14;;;;;;;16.07;14.77;;;12.30;12.50;;;;;;4792777;29;20642;-49
2024/03/22 07:32:40;;;;;;;16.70;15.20;;;12.40;1.00;;;;;;4796084;29;20479;-48
2024/03/22 07:35:07;;;;;;;17.67;16.13;;;12.40;1.00;;;;;;4810153;29;20194;-49
2024/03/22 07:37:34;;;;;;;16.47;15.17;;;12.50;1.00;;;;;;4805704;29;20468;-48
2024/03/22 07:39:59;;;;;;;16.30;14.87;;;12.70;1.00;;;;;;4796453;29;20451;-46
2024/03/22 07:42:25;;;;;;;16.77;15.23;;;12.70;1.00;;;;;;4810429;29;20434;-42
2024/03/22 07:44:50;;;;;;;15.40;14.10;;;12.90;1.00;;;;;;4804283;29;20194;-42
2024/03/22 07:47:16;;;;;;;15.20;14.00;;;12.90;1.00;;;;;;4810869;29;20257;-44
2024/03/22 07:49:42;;;;;;;15.97;14.67;;;13.00;99.90;;;;;;4807821;29;20194;-41
2024/03/22 07:52:07;;;;;;;17.10;15.60;;;13.10;99.90;;;;;;4815715;29;20210;-40
2024/03/22 07:54:33;;;;;;;15.77;14.47;;;13.20;99.90;;;;;;4812946;29;20196;-41
2024/03/22 07:56:59;;;;;;;15.70;14.50;;;13.30;99.90;;;;;;4815176;29;20193;-42
2024/03/22 07:59:25;;;;;;;17.07;15.43;;;13.40;99.90;;;;;;4810921;29;20280;-40
2024/03/22 08:01:50;;;;;;;16.17;14.77;;;13.50;99.90;;;;;;4807703;29;20196;-40
2024/03/22 08:04:16;;;;;;;16.73;15.33;;;13.60;99.90;;;;;;4816222;29;20434;-40
2024/03/22 08:06:41;;;;;;;15.40;14.30;;;13.70;79.90;;;;;;4816027;29;20375;-41
2024/03/22 08:09:07;;;;;;;16.20;14.80;;;13.80;57.50;;;;;;4811601;29;20720;-42
2024/03/22 08:11:33;;;;;;;15.70;14.40;;;13.90;20.40;;;;;;4815660;29;20463;-42
2024/03/22 08:14:02;;;;;;;17.00;15.50;;;13.90;1.00;;;;;;4808287;29;20834;-42
2024/03/22 08:16:28;;;;;;;15.20;14.00;;;13.90;1.00;;;;;;4804151;29;20217;-46
2024/03/22 08:18:54;;;;;;;16.17;14.77;;;14.00;1.00;;;;;;4809706;29;20991;-40
2024/03/22 08:21:20;;;;;;;15.63;14.13;;;14.10;1.00;;;;;;4815572;29;20494;-39
2024/03/22 08:23:46;;;;;;;15.50;14.20;;;13.90;1.00;;;;;;4795050;29;20186;-52
2024/03/22 08:26:11;;;;;;;15.80;14.50;;;14.00;1.00;;;;;;4811635;29;20197;-48
2024/03/22 08:28:38;;;;;;;17.33;15.93;;;14.10;1.00;;;;;;4809165;29;20423;-53
2024/03/22 08:31:04;;;;;;;17.03;15.60;;;14.10;1.00;;;;;;4800116;29;20183;-49
2024/03/22 08:33:30;;;;;;;17.63;16.10;;;14.10;1.00;;;;;;4814000;29;20848;-49
2024/03/22 08:35:56;;;;;;;16.50;15.10;;;14.00;1.00;;;;;;4811032;29;20534;-44
2024/03/22 08:38:21;;;;;;;15.47;14.10;;;13.80;1.00;;;;;;4808011;29;20194;-51
2024/03/22 08:40:48;;;;;;;17.17;15.63;;;14.00;1.00;;;;;;4810966;29;20746;-52
2024/03/22 08:43:13;;;;;;;17.10;15.60;;;14.10;1.00;;;;;;4816370;29;20182;-50
2024/03/22 08:45:39;;;;;;;16.97;15.53;;;14.20;1.00;;;;;;4812218;29;20449;-50
2024/03/22 08:48:05;;;;;;;17.03;15.53;;;14.40;1.00;;;;;;4799560;29;20227;-51
2024/03/22 08:50:30;;;;;;;17.10;15.50;;;14.50;1.00;;;;;;4814004;29;20770;-53
2024/03/22 08:52:56;;;;;;;16.90;15.50;;;14.70;1.00;;;;;;4815729;29;20503;-44
2024/03/22 08:55:22;;;;;;;16.10;14.80;;;14.80;1.00;;;;;;4804011;29;20194;-40
2024/03/22 08:57:48;;;;;;;17.00;15.60;;;14.80;1.00;;;;;;4816439;29;21096;-44
2024/03/22 09:00:14;;;;;;;16.27;14.97;;;14.90;1.00;;;;;;4803524;29;20544;-40
2024/03/22 09:02:39;;;;;;;15.20;14.03;;;14.90;1.00;;;;;;4812001;29;20571;-39
2024/03/22 09:05:06;;;;;;;16.17;14.67;;;14.80;1.00;;;;;;4800492;29;20190;-41
2024/03/22 09:07:32;;;;;;;16.00;14.60;;;15.00;1.00;;;;;;4806128;29;20878;-43
2024/03/22 09:09:57;;;;;;;15.23;14.07;;;15.00;1.00;;;;;;4799522;29;20462;-43
2024/03/22 09:12:23;;;;;;;15.10;14.10;;;14.90;1.00;;;;;;4796195;29;20369;-39
2024/03/22 09:14:49;;;;;;;16.43;15.03;;;15.20;1.00;;;;;;4799659;29;20539;-39
2024/03/22 09:17:14;;;;;;;15.67;14.57;;;15.20;1.00;;;;;;4812713;29;20250;-50
2024/03/22 09:19:40;;;;;;;16.03;14.63;;;15.30;1.00;;;;;;4809361;29;20194;-39
2024/03/22 09:22:05;;;;;;;15.00;13.90;;;15.60;1.00;;;;;;4795991;29;20206;-41
2024/03/22 09:24:31;;;;;;;14.60;13.50;;;15.70;1.00;;;;;;4810846;29;20607;-43
2024/03/22 09:26:57;;;;;;;14.80;13.70;;;15.90;1.00;;;;;;4812308;29;20523;-40
2024/03/22 09:29:24;;;;;;;15.03;13.87;;;16.00;1.00;;;;;;4812396;29;20620;-42
2024/03/22 09:31:50;;;;;;;14.80;13.40;;;16.40;1.00;;;;;;4796009;29;20442;-42
2024/03/22 09:34:16;;;;;;;14.57;13.57;;;16.70;1.00;;;;;;4811378;29;20425;-40
2024/03/22 09:36:42;;;;;;;13.77;12.77;;;16.80;1.00;;;;;;4801596;29;20432;-43
2024/03/22 09:39:08;;;;;;;14.53;13.53;;;17.30;1.00;;;;;;4802574;29;20615;-42
2024/03/22 09:41:42;;;;;;;13.80;12.90;;;17.90;1.00;;;;;;4808374;29;20232;-40
2024/03/22 09:44:13;;;;;;;14.40;13.30;;;18.30;99.90;;;;;;4811816;29;20438;-43
2024/03/22 09:46:40;;;;;;;13.20;12.40;;;18.10;99.90;;;;;;4804767;29;20422;-40
2024/03/22 09:49:07;;;;;;;13.60;12.70;;;18.30;99.90;;;;;;4800249;29;21122;-46
2024/03/22 09:51:34;;;;;;;13.60;12.70;;;18.60;99.90;;;;;;4806111;29;20521;-46
2024/03/22 09:54:01;;;;;;;13.33;12.53;;;19.00;99.90;;;;;;4806138;29;20434;-46
2024/03/22 09:56:30;;;;;;;12.60;11.80;;;19.20;99.90;;;;;;4802783;29;20444;-48
2024/03/22 09:58:56;;;;;;;13.00;12.20;;;19.20;99.90;;;;;;4809214;29;20518;-48
2024/03/22 10:01:22;;;;;;;12.03;11.33;;;19.40;99.90;;;;;;4809161;29;20441;-46
2024/03/22 10:03:50;;;;;;;12.00;11.20;;;18.50;99.90;;;;;;4806822;29;20427;-46
2024/03/22 10:06:16;;;;;;;12.40;11.70;;;18.70;99.90;;;;;;4810701;29;20503;-44
2024/03/22 10:08:41;;;;;;;12.70;11.90;;;19.50;99.90;;;;;;4812403;29;20431;-43
2024/03/22 10:11:07;;;;;;;12.90;12.13;;;20.30;99.90;;;;;;4807309;29;20464;-49
2024/03/22 10:13:32;;;;;;;11.23;10.63;;;21.00;99.90;;;;;;4809273;29;20431;-49
2024/03/22 10:15:58;;;;;;;12.43;11.63;;;21.90;99.90;;;;;;4797380;29;20251;-49
2024/03/22 10:18:23;;;;;;;13.17;12.37;;;22.70;99.90;;;;;;4810197;29;20193;-47
2024/03/22 10:21:05;;;;;;;12.07;11.37;;;23.10;99.90;;;;;;4805907;29;20190;-50
2024/03/22 10:23:31;;;;;;;11.70;11.10;;;23.20;99.90;;;;;;4777952;29;20571;-43
2024/03/22 10:25:58;;;;;;;13.00;12.30;;;22.80;99.90;;;;;;4794618;29;20626;-46
2024/03/22 10:28:27;;;;;;;11.97;11.37;;;23.00;99.90;;;;;;4800033;29;20435;-48
2024/03/22 10:30:53;;;;;;;12.67;11.83;;;22.70;99.90;;;;;;4806631;29;20471;-48
2024/03/22 10:33:22;;;;;;;11.83;11.23;;;22.10;99.90;;;;;;4811879;29;20832;-50
2024/03/22 10:35:53;;;;;;;11.70;11.10;;;21.20;99.90;;;;;;4808642;29;20431;-48
2024/03/22 10:38:20;;;;;;;12.63;11.93;;;20.50;99.90;;;;;;4811724;29;20423;-51
2024/03/22 10:40:47;;;;;;;11.20;10.50;;;20.00;99.90;;;;;;4793541;29;20443;-46
2024/03/22 10:43:13;;;;;;;11.80;11.20;;;19.80;99.90;;;;;;4811630;29;20863;-46
2024/03/22 10:45:40;;;;;;;11.47;10.87;;;19.80;99.90;;;;;;4805838;29;21051;-48
2024/03/22 10:48:09;;;;;;;11.73;11.03;;;20.00;99.90;;;;;;4802350;29;20800;-43
2024/03/22 10:50:41;;;;;;;12.17;11.47;;;20.10;99.90;;;;;;4806933;29;20789;-49
2024/03/22 10:53:13;;;;;;;11.93;11.27;;;20.00;99.90;;;;;;4793635;29;20535;-47
2024/03/22 10:55:43;;;;;;;11.60;11.00;;;19.90;99.90;;;;;;4810679;29;20419;-46
2024/03/22 10:58:20;;;;;;;10.97;10.37;;;20.00;99.90;;;;;;4810115;29;20497;-49
2024/03/22 11:00:46;;;;;;;11.10;10.57;;;20.40;99.90;;;;;;4810334;29;20441;-45
2024/03/22 11:03:13;;;;;;;10.80;10.30;;;21.00;99.90;;;;;;4802020;29;20428;-48
2024/03/22 11:05:46;;;;;;;11.50;10.90;;;21.70;99.90;;;;;;4811179;29;20423;-48
2024/03/22 11:08:12;;;;;;;11.13;10.53;;;22.00;99.90;;;;;;4806162;29;20435;-49
2024/03/22 11:10:37;;;;;;;11.80;11.20;;;22.00;99.90;;;;;;4811071;29;20427;-48
2024/03/22 11:13:04;;;;;;;11.30;10.70;;;21.60;99.90;;;;;;4798988;29;20218;-47
2024/03/22 11:15:31;;;;;;;11.53;10.93;;;21.40;99.90;;;;;;4801395;29;20325;-50
2024/03/22 11:17:57;;;;;;;11.83;11.23;;;20.80;99.90;;;;;;4800420;29;20484;-49
2024/03/22 11:20:23;;;;;;;11.67;11.07;;;20.30;99.90;;;;;;4811055;29;20490;-46
2024/03/22 11:22:50;;;;;;;12.03;11.30;;;20.00;99.90;;;;;;4809526;29;20431;-49
2024/03/22 11:25:16;;;;;;;11.43;10.83;;;19.80;99.90;;;;;;4810566;29;20458;-46
2024/03/22 11:27:41;;;;;;;11.77;11.13;;;19.40;99.90;;;;;;4800664;29;21045;-44
2024/03/22 11:30:07;;;;;;;12.10;11.40;;;19.30;99.90;;;;;;4811150;29;20554;-40
2024/03/22 11:32:42;;;;;;;12.70;11.90;;;19.20;99.90;;;;;;4802099;29;20484;-38
2024/03/22 11:35:11;;;;;;;12.30;11.50;;;19.10;99.90;;;;;;4811299;29;20185;-41
2024/03/22 11:37:40;;;;;;;12.53;11.80;;;19.00;99.90;;;;;;4802828;29;20501;-41
2024/03/22 11:40:10;;;;;;;12.60;11.90;;;18.90;99.90;;;;;;4810622;29;21082;-37
2024/03/22 11:42:46;;;;;;;11.30;10.80;;;18.80;99.90;;;;;;4801801;29;20611;-40
2024/03/22 11:45:14;;;;;;;11.40;10.80;;;18.80;99.90;;;;;;4802914;29;20433;-42
2024/03/22 11:47:40;;;;;;;11.50;10.90;;;18.70;99.90;;;;;;4805519;29;20435;-42
2024/03/22 11:50:06;;;;;;;12.10;11.40;;;18.70;99.90;;;;;;4810816;29;21012;-40
2024/03/22 11:52:32;;;;;;;11.97;11.37;;;18.70;99.90;;;;;;4807395;29;20205;-37
2024/03/22 11:54:57;;;;;;;11.10;10.50;;;18.80;99.90;;;;;;4805838;29;20488;-38
2024/03/22 11:57:24;;;;;;;11.97;11.33;;;18.90;99.90;;;;;;4802458;29;20186;-39
2024/03/22 11:59:51;;;;;;;11.97;11.37;;;18.80;99.90;;;;;;4811067;29;20205;-41
2024/03/22 12:02:16;;;;;;;12.60;11.80;;;18.80;99.90;;;;;;4802492;29;20462;-43
2024/03/22 12:04:45;;;;;;;11.73;11.03;;;18.80;99.90;;;;;;4806470;29;20864;-40
2024/03/22 12:07:12;;;;;;;11.40;10.80;;;18.90;99.90;;;;;;4806708;29;20431;-39
2024/03/22 12:09:39;;;;;;;11.93;11.33;;;19.00;99.90;;;;;;4803584;29;20431;-38
2024/03/22 12:12:07;;;;;;;12.03;11.43;;;19.30;99.90;;;;;;4809323;29;20466;-38
2024/03/22 12:14:33;;;;;;;11.77;11.17;;;19.30;99.90;;;;;;4806419;29;20510;-39
2024/03/22 12:16:58;;;;;;;12.20;11.50;;;19.20;99.90;;;;;;4798142;29;20439;-39
2024/03/22 12:19:24;;;;;;;11.23;10.63;;;19.40;99.90;;;;;;4804773;29;20781;-38
2024/03/22 12:21:50;;;;;;;12.50;11.80;;;19.80;99.90;;;;;;4810245;29;20193;-40
2024/03/22 12:24:15;;;;;;;11.70;11.07;;;20.10;99.90;;;;;;4805724;29;20602;-38
2024/03/22 12:26:41;;;;;;;10.83;10.23;;;20.10;99.90;;;;;;4805572;29;20182;-38
2024/03/22 12:29:07;;;;;;;11.27;10.70;;;20.30;99.90;;;;;;4800841;29;20598;-38